createdAt,value
2018-05-13T00:00:34.046Z,50.69
2018-05-13T00:01:33.817Z,50.69
2018-05-13T00:02:33.845Z,51.46
2018-05-13T00:03:34.130Z,51.56
2018-05-13T00:04:34.148Z,51.26
2018-05-13T00:05:33.921Z,51.65
2018-05-13T00:06:34.200Z,52.13
2018-05-13T00:07:34.023Z,51.46
2018-05-13T00:08:34.249Z,51.46
2018-05-13T00:09:34.357Z,51.65
2018-05-13T00:10:34.314Z,51.36
2018-05-13T00:11:34.327Z,51.75
2018-05-13T00:12:34.350Z,51.56
2018-05-13T00:13:34.378Z,51.94
2018-05-13T00:14:34.403Z,51.43
2018-05-13T00:15:34.439Z,51.94
2018-05-13T00:16:34.454Z,51.65
2018-05-13T00:17:34.221Z,51.46
2018-05-13T00:18:34.251Z,51.26
2018-05-13T00:19:34.530Z,51.36
2018-05-13T00:20:34.551Z,51.46
2018-05-13T00:21:34.575Z,51.26
2018-05-13T00:22:34.650Z,51.84
2018-05-13T00:23:34.654Z,51.65
2018-05-13T00:24:34.665Z,51.56
2018-05-13T00:25:34.677Z,51.56
2018-05-13T00:26:34.451Z,51.75
2018-05-13T00:27:34.572Z,51.84
2018-05-13T00:28:34.766Z,52.04
2018-05-13T00:29:34.526Z,51.84
2018-05-13T00:30:34.802Z,52.3
2018-05-13T00:31:34.829Z,52.2
2018-05-13T00:32:34.854Z,52.4
2018-05-13T00:33:34.880Z,52.42
2018-05-13T00:34:34.902Z,53.07
2018-05-13T00:35:34.671Z,53.07
2018-05-13T00:36:34.694Z,53.07
2018-05-13T00:37:35.025Z,52.97
2018-05-13T00:38:34.746Z,52.97
2018-05-13T00:39:35.018Z,52.69
2018-05-13T00:40:35.055Z,53.07
2018-05-13T00:41:35.080Z,53.55
2018-05-13T00:42:35.104Z,53.45
2018-05-13T00:43:35.124Z,53.65
2018-05-13T00:44:35.150Z,53.36
2018-05-13T00:45:34.920Z,53.45
2018-05-13T00:46:35.202Z,53.84
2018-05-13T00:47:35.223Z,53.81
2018-05-13T00:48:35.257Z,53.81
2018-05-13T00:49:35.273Z,53.94
2018-05-13T00:50:35.425Z,53.94
2018-05-13T00:51:35.321Z,53.81
2018-05-13T00:52:35.397Z,54.52
2018-05-13T00:53:35.118Z,54.1
2018-05-13T00:54:35.404Z,54.58
2018-05-13T00:55:35.431Z,54.2
2018-05-13T00:56:35.456Z,54.58
2018-05-13T00:57:35.484Z,54.97
2018-05-13T00:58:35.498Z,54.3
2018-05-13T00:59:35.520Z,55.07
2018-05-13T01:00:35.300Z,55.07
2018-05-13T01:01:35.577Z,54.97
2018-05-13T01:02:35.607Z,54.87
2018-05-13T01:03:35.629Z,54.87
2018-05-13T01:04:35.649Z,54.49
2018-05-13T01:05:35.684Z,55.07
2018-05-13T01:06:35.443Z,55.16
2018-05-13T01:07:35.776Z,55.83
2018-05-13T01:08:35.494Z,55.26
2018-05-13T01:09:35.768Z,55.93
2018-05-13T01:10:35.546Z,55.74
2018-05-13T01:11:35.816Z,55.55
2018-05-13T01:12:35.839Z,55.74
2018-05-13T01:13:35.872Z,55.55
2018-05-13T01:14:35.887Z,55.93
2018-05-13T01:15:35.921Z,55.93
2018-05-13T01:16:35.686Z,55.93
2018-05-13T01:17:36.063Z,55.74
2018-05-13T01:18:36.101Z,56.41
2018-05-13T01:19:36.017Z,56.29
2018-05-13T01:20:36.046Z,56.1
2018-05-13T01:21:36.074Z,56.38
2018-05-13T01:22:36.142Z,56.48
2018-05-13T01:23:36.117Z,56.67
2018-05-13T01:24:35.887Z,56.1
2018-05-13T01:25:36.175Z,56.7
2018-05-13T01:26:35.936Z,56.38
2018-05-13T01:27:35.970Z,56.48
2018-05-13T01:28:35.985Z,57.06
2018-05-13T01:29:36.265Z,57.35
2018-05-13T01:30:36.292Z,57.15
2018-05-13T01:31:36.316Z,57.35
2018-05-13T01:32:36.341Z,57.45
2018-05-13T01:33:36.115Z,57.83
2018-05-13T01:34:36.392Z,58.02
2018-05-13T01:35:36.411Z,58.12
2018-05-13T01:36:36.436Z,58.22
2018-05-13T01:37:36.510Z,58.12
2018-05-13T01:38:36.488Z,57.73
2018-05-13T01:39:36.257Z,58.4
2018-05-13T01:40:36.535Z,58.4
2018-05-13T01:41:36.561Z,58.12
2018-05-13T01:42:36.330Z,58.89
2018-05-13T01:43:36.619Z,58.98
2018-05-13T01:44:36.379Z,59.24
2018-05-13T01:45:36.656Z,59.72
2018-05-13T01:46:36.425Z,60.78
2018-05-13T01:47:36.447Z,60.59
2018-05-13T01:48:36.723Z,61.26
2018-05-13T01:49:36.754Z,61.81
2018-05-13T01:50:36.774Z,61.23
2018-05-13T01:51:36.798Z,61.81
2018-05-13T01:52:36.870Z,61.52
2018-05-13T01:53:36.851Z,62.1
2018-05-13T01:54:36.882Z,62.51
2018-05-13T01:55:36.903Z,62.58
2018-05-13T01:56:36.921Z,63.15
2018-05-13T01:57:36.957Z,63.25
2018-05-13T01:58:36.973Z,63.45
2018-05-13T01:59:36.741Z,63.35
2018-05-13T02:00:37.020Z,63.06
2018-05-13T02:01:37.045Z,63.73
2018-05-13T02:02:36.813Z,63.38
2018-05-13T02:03:37.088Z,62.96
2018-05-13T02:04:37.119Z,63.76
2018-05-13T02:05:37.143Z,63.64
2018-05-13T02:06:37.161Z,64.31
2018-05-13T02:07:36.991Z,64.22
2018-05-13T02:08:37.213Z,64.6
2018-05-13T02:09:37.236Z,64.89
2018-05-13T02:10:37.262Z,64.22
2018-05-13T02:11:37.024Z,64.22
2018-05-13T02:12:37.050Z,64.31
2018-05-13T02:13:37.327Z,64.4
2018-05-13T02:14:37.351Z,64.89
2018-05-13T02:15:37.372Z,65.17
2018-05-13T02:16:37.397Z,64.98
2018-05-13T02:17:37.421Z,64.98
2018-05-13T02:18:37.446Z,65.17
2018-05-13T02:19:37.473Z,65.17
2018-05-13T02:20:37.493Z,65.17
2018-05-13T02:21:37.517Z,64.69
2018-05-13T02:22:37.591Z,64.69
2018-05-13T02:23:37.315Z,65.08
2018-05-13T02:24:37.589Z,64.79
2018-05-13T02:25:37.614Z,65.08
2018-05-13T02:26:37.637Z,64.89
2018-05-13T02:27:37.704Z,64.79
2018-05-13T02:28:37.435Z,64.89
2018-05-13T02:29:37.709Z,64.69
2018-05-13T02:30:37.737Z,65.08
2018-05-13T02:31:37.776Z,65.08
2018-05-13T02:32:37.791Z,65.08
2018-05-13T02:33:37.815Z,64.6
2018-05-13T02:34:37.582Z,64.5
2018-05-13T02:35:37.859Z,64.12
2018-05-13T02:36:37.893Z,64.22
2018-05-13T02:37:37.956Z,64.22
2018-05-13T02:38:37.934Z,64.31
2018-05-13T02:39:37.954Z,64.4
2018-05-13T02:40:37.977Z,64.89
2018-05-13T02:41:38.002Z,64.5
2018-05-13T02:42:38.027Z,64.79
2018-05-13T02:43:38.057Z,63.92
2018-05-13T02:44:38.075Z,64.69
2018-05-13T02:45:38.110Z,64.79
2018-05-13T02:46:38.123Z,64.79
2018-05-13T02:47:38.147Z,64.6
2018-05-13T02:48:38.167Z,64.6
2018-05-13T02:49:38.194Z,64.79
2018-05-13T02:50:38.216Z,64.69
2018-05-13T02:51:38.243Z,64.31
2018-05-13T02:52:38.324Z,65.08
2018-05-13T02:53:38.285Z,65.17
2018-05-13T02:54:38.408Z,65.17
2018-05-13T02:55:38.341Z,64.6
2018-05-13T02:56:38.370Z,65.08
2018-05-13T02:57:38.388Z,64.5
2018-05-13T02:58:38.404Z,64.5
2018-05-13T02:59:38.184Z,65.66
2018-05-13T03:00:38.457Z,65.62
2018-05-13T03:01:38.477Z,66
2018-05-13T03:02:38.501Z,66.2
2018-05-13T03:03:38.273Z,65.43
2018-05-13T03:04:38.551Z,66
2018-05-13T03:05:38.321Z,65.81
2018-05-13T03:06:38.346Z,65.91
2018-05-13T03:07:38.675Z,65.62
2018-05-13T03:08:38.647Z,65.62
2018-05-13T03:09:38.417Z,65.81
2018-05-13T03:10:38.445Z,66
2018-05-13T03:11:38.722Z,65.81
2018-05-13T03:12:38.750Z,65.81
2018-05-13T03:13:38.770Z,65.72
2018-05-13T03:14:38.793Z,65.81
2018-05-13T03:15:38.827Z,64.66
2018-05-13T03:16:38.842Z,64.69
2018-05-13T03:17:38.864Z,64.98
2018-05-13T03:18:38.971Z,64.98
2018-05-13T03:19:38.660Z,65.08
2018-05-13T03:20:38.937Z,65.08
2018-05-13T03:21:38.966Z,65.08
2018-05-13T03:22:38.780Z,64.5
2018-05-13T03:23:39.009Z,64.98
2018-05-13T03:24:39.031Z,64.89
2018-05-13T03:25:39.057Z,64.79
2018-05-13T03:26:39.079Z,64.89
2018-05-13T03:27:39.156Z,65.62
2018-05-13T03:28:39.132Z,65.62
2018-05-13T03:29:39.149Z,64.85
2018-05-13T03:30:39.190Z,64.69
2018-05-13T03:31:39.201Z,64.98
2018-05-13T03:32:39.229Z,64.98
2018-05-13T03:33:39.244Z,65.17
2018-05-13T03:34:39.263Z,65.05
2018-05-13T03:35:39.293Z,65.17
2018-05-13T03:36:39.067Z,64.95
2018-05-13T03:37:39.350Z,64.66
2018-05-13T03:38:39.365Z,65.53
2018-05-13T03:39:39.393Z,65.53
2018-05-13T03:40:39.415Z,65.81
2018-05-13T03:41:39.445Z,65.81
2018-05-13T03:42:39.506Z,65.62
2018-05-13T03:43:39.228Z,66.3
2018-05-13T03:44:39.253Z,66.3
2018-05-13T03:45:39.529Z,66.3
2018-05-13T03:46:39.299Z,66.39
2018-05-13T03:47:39.577Z,66.2
2018-05-13T03:48:39.608Z,66.87
2018-05-13T03:49:39.645Z,66.97
2018-05-13T03:50:39.408Z,67.07
2018-05-13T03:51:39.674Z,66.68
2018-05-13T03:52:39.788Z,66.58
2018-05-13T03:53:39.711Z,66.68
2018-05-13T03:54:39.760Z,67.25
2018-05-13T03:55:39.761Z,67.51
2018-05-13T03:56:39.529Z,68.28
2018-05-13T03:57:39.860Z,68.57
2018-05-13T03:58:39.831Z,68.18
2018-05-13T03:59:39.855Z,68.18
2018-05-13T04:00:39.874Z,68.44
2018-05-13T04:01:39.913Z,68.34
2018-05-13T04:02:39.673Z,68.85
2018-05-13T04:03:39.946Z,68.85
2018-05-13T04:04:39.716Z,68.44
2018-05-13T04:05:39.993Z,68.53
2018-05-13T04:06:40.019Z,68.34
2018-05-13T04:07:40.042Z,68.37
2018-05-13T04:08:40.062Z,68.63
2018-05-13T04:09:40.095Z,69.34
2018-05-13T04:10:40.123Z,69.78
2018-05-13T04:11:39.890Z,69.68
2018-05-13T04:12:39.964Z,69.68
2018-05-13T04:13:40.191Z,69.87
2018-05-13T04:14:40.213Z,69.4
2018-05-13T04:15:40.241Z,69.2
2018-05-13T04:16:40.265Z,69.68
2018-05-13T04:17:40.286Z,69.4
2018-05-13T04:18:40.305Z,68.82
2018-05-13T04:19:40.075Z,68.57
2018-05-13T04:20:40.101Z,68.37
2018-05-13T04:21:40.124Z,68.28
2018-05-13T04:22:40.501Z,68.08
2018-05-13T04:23:40.172Z,68.18
2018-05-13T04:24:40.194Z,68.02
2018-05-13T04:25:40.481Z,68.47
2018-05-13T04:26:40.245Z,68.28
2018-05-13T04:27:40.555Z,68.08
2018-05-13T04:28:40.277Z,67.61
2018-05-13T04:29:40.551Z,67.64
2018-05-13T04:30:40.577Z,68.02
2018-05-13T04:31:40.599Z,67.54
2018-05-13T04:32:40.632Z,67.64
2018-05-13T04:33:40.648Z,67.45
2018-05-13T04:34:40.418Z,67.45
2018-05-13T04:35:40.697Z,67.25
2018-05-13T04:36:40.722Z,67.74
2018-05-13T04:37:40.497Z,67.74
2018-05-13T04:38:40.522Z,67.74
2018-05-13T04:39:40.887Z,67.74
2018-05-13T04:40:40.826Z,67.93
2018-05-13T04:41:40.852Z,67.83
2018-05-13T04:42:40.921Z,67.74
2018-05-13T04:43:40.642Z,67.45
2018-05-13T04:44:40.663Z,67.83
2018-05-13T04:45:40.945Z,68.02
2018-05-13T04:46:40.973Z,67.83
2018-05-13T04:47:41.019Z,67.54
2018-05-13T04:48:41.019Z,66.58
2018-05-13T04:49:41.038Z,66.68
2018-05-13T04:50:41.064Z,66.87
2018-05-13T04:51:41.092Z,66.77
2018-05-13T04:52:41.112Z,67.74
2018-05-13T04:53:41.140Z,67.74
2018-05-13T04:54:40.901Z,67.74
2018-05-13T04:55:41.182Z,67.74
2018-05-13T04:56:41.215Z,67.74
2018-05-13T04:57:42.076Z,67.25
2018-05-13T04:58:41.251Z,67.45
2018-05-13T04:59:41.297Z,67.64
2018-05-13T05:00:41.303Z,67.45
2018-05-13T05:01:41.321Z,67.25
2018-05-13T05:02:41.346Z,67.45
2018-05-13T05:03:41.376Z,67.16
2018-05-13T05:04:41.140Z,67.25
2018-05-13T05:05:41.410Z,66.91
2018-05-13T05:06:41.182Z,67.54
2018-05-13T05:07:41.207Z,67.25
2018-05-13T05:08:41.488Z,66.77
2018-05-13T05:09:41.505Z,66.1
2018-05-13T05:10:41.529Z,66.87
2018-05-13T05:11:41.556Z,67.64
2018-05-13T05:12:41.635Z,68.34
2018-05-13T05:13:41.601Z,68.63
2018-05-13T05:14:41.368Z,68.34
2018-05-13T05:15:41.393Z,68.53
2018-05-13T05:16:41.667Z,69.24
2018-05-13T05:17:41.691Z,69.87
2018-05-13T05:18:41.716Z,70.17
2018-05-13T05:19:41.743Z,71.09
2018-05-13T05:20:41.510Z,70.99
2018-05-13T05:21:41.540Z,71.19
2018-05-13T05:22:41.818Z,70.9
2018-05-13T05:23:41.840Z,70.23
2018-05-13T05:24:41.857Z,70.23
2018-05-13T05:25:41.887Z,70.26
2018-05-13T05:26:41.657Z,69.87
2018-05-13T05:27:41.735Z,70.17
2018-05-13T05:28:41.710Z,70.07
2018-05-13T05:29:41.973Z,69.68
2018-05-13T05:30:42.015Z,69.87
2018-05-13T05:31:42.021Z,70.17
2018-05-13T05:32:41.791Z,69.2
2018-05-13T05:33:42.068Z,68.76
2018-05-13T05:34:42.090Z,67.99
2018-05-13T05:35:41.908Z,68.28
2018-05-13T05:36:41.883Z,67.54
2018-05-13T05:37:41.908Z,67.83
2018-05-13T05:38:42.189Z,67.25
2018-05-13T05:39:42.213Z,66.87
2018-05-13T05:40:41.976Z,66.77
2018-05-13T05:41:42.001Z,66.97
2018-05-13T05:42:42.098Z,66.3
2018-05-13T05:43:42.048Z,66.23
2018-05-13T05:44:42.332Z,65.84
2018-05-13T05:45:42.094Z,65.84
2018-05-13T05:46:42.373Z,65.94
2018-05-13T05:47:42.393Z,65.37
2018-05-13T05:48:42.422Z,65.46
2018-05-13T05:49:42.190Z,65.17
2018-05-13T05:50:42.456Z,65.66
2018-05-13T05:51:42.483Z,64.98
2018-05-13T05:52:42.255Z,64.89
2018-05-13T05:53:42.543Z,65.17
2018-05-13T05:54:42.565Z,64.98
2018-05-13T05:55:42.595Z,65.2
2018-05-13T05:56:42.613Z,65.2
2018-05-13T05:57:42.694Z,65.59
2018-05-13T05:58:42.661Z,65.46
2018-05-13T05:59:42.683Z,66.14
2018-05-13T06:00:42.707Z,66.23
2018-05-13T06:01:42.735Z,66.04
2018-05-13T06:02:42.853Z,65.56
2018-05-13T06:03:42.780Z,65.75
2018-05-13T06:04:42.810Z,65.56
2018-05-13T06:05:42.827Z,65.27
2018-05-13T06:06:42.609Z,65.66
2018-05-13T06:07:42.872Z,65.56
2018-05-13T06:08:42.933Z,66.23
2018-05-13T06:09:42.921Z,65.37
2018-05-13T06:10:42.953Z,65.08
2018-05-13T06:11:42.970Z,64.89
2018-05-13T06:12:42.790Z,64.69
2018-05-13T06:13:43.023Z,65.17
2018-05-13T06:14:43.041Z,64.89
2018-05-13T06:15:43.066Z,64.89
2018-05-13T06:16:43.097Z,64.34
2018-05-13T06:17:42.860Z,64.15
2018-05-13T06:18:43.147Z,63.95
2018-05-13T06:19:43.377Z,63.86
2018-05-13T06:20:42.934Z,63.28
2018-05-13T06:21:43.212Z,63.28
2018-05-13T06:22:43.235Z,63.18
2018-05-13T06:23:43.261Z,63.76
2018-05-13T06:24:43.284Z,64.34
2018-05-13T06:25:43.308Z,64.02
2018-05-13T06:26:43.077Z,64.4
2018-05-13T06:27:43.407Z,64.12
2018-05-13T06:28:43.380Z,64.5
2018-05-13T06:29:43.406Z,63.86
2018-05-13T06:30:43.431Z,63.95
2018-05-13T06:31:43.461Z,64.15
2018-05-13T06:32:43.488Z,64.53
2018-05-13T06:33:43.501Z,64.43
2018-05-13T06:34:43.524Z,63.48
2018-05-13T06:35:43.554Z,63.45
2018-05-13T06:36:43.319Z,63.95
2018-05-13T06:37:43.597Z,63.57
2018-05-13T06:38:43.367Z,63.95
2018-05-13T06:39:43.410Z,63.76
2018-05-13T06:40:43.681Z,63.76
2018-05-13T06:41:43.441Z,63.18
2018-05-13T06:42:43.769Z,63.73
2018-05-13T06:43:43.489Z,63.67
2018-05-13T06:44:43.766Z,64.25
2018-05-13T06:45:43.791Z,63.76
2018-05-13T06:46:43.814Z,63.48
2018-05-13T06:47:43.842Z,62.71
2018-05-13T06:48:43.863Z,62.93
2018-05-13T06:49:43.893Z,63.6
2018-05-13T06:50:43.914Z,62.54
2018-05-13T06:51:43.936Z,62.74
2018-05-13T06:52:44.060Z,63.02
2018-05-13T06:53:44.005Z,62.83
2018-05-13T06:54:44.009Z,61.87
2018-05-13T06:55:44.034Z,61.97
2018-05-13T06:56:44.065Z,61.68
2018-05-13T06:57:44.235Z,61.49
2018-05-13T06:58:43.852Z,61.58
2018-05-13T06:59:44.128Z,60.72
2018-05-13T07:00:43.900Z,60.84
2018-05-13T07:01:44.181Z,61.68
2018-05-13T07:02:44.010Z,61.39
2018-05-13T07:03:43.974Z,61.22
2018-05-13T07:04:44.262Z,60.27
2018-05-13T07:05:44.277Z,60.55
2018-05-13T07:06:44.305Z,59.97
2018-05-13T07:07:44.073Z,59.43
2018-05-13T07:08:44.102Z,59.91
2018-05-13T07:09:44.380Z,60.07
2018-05-13T07:10:44.147Z,59.72
2018-05-13T07:11:44.171Z,59.14
2018-05-13T07:12:44.500Z,59.33
2018-05-13T07:13:44.489Z,59.52
2018-05-13T07:14:44.504Z,59.23
2018-05-13T07:15:44.534Z,59.14
2018-05-13T07:16:44.550Z,59.33
2018-05-13T07:17:44.581Z,59.23
2018-05-13T07:18:44.597Z,59.23
2018-05-13T07:19:44.627Z,58.37
2018-05-13T07:20:44.394Z,58.47
2018-05-13T07:21:44.677Z,59.14
2018-05-13T07:22:44.702Z,59.4
2018-05-13T07:23:44.725Z,59.23
2018-05-13T07:24:44.748Z,59.2
2018-05-13T07:25:44.779Z,59.04
2018-05-13T07:26:44.798Z,59.2
2018-05-13T07:27:44.565Z,59.14
2018-05-13T07:28:44.848Z,59.4
2018-05-13T07:29:44.985Z,59.3
2018-05-13T07:30:44.900Z,59.2
2018-05-13T07:31:44.931Z,59.81
2018-05-13T07:32:44.944Z,60.36
2018-05-13T07:33:44.737Z,61.39
2018-05-13T07:34:44.994Z,61.68
2018-05-13T07:35:44.766Z,60.91
2018-05-13T07:36:45.121Z,59.3
2018-05-13T07:37:44.827Z,58.75
2018-05-13T07:38:45.093Z,58.17
2018-05-13T07:39:45.115Z,57.43
2018-05-13T07:40:45.158Z,57.72
2018-05-13T07:41:45.169Z,57.53
2018-05-13T07:42:45.204Z,57.43
2018-05-13T07:43:45.216Z,57.05
2018-05-13T07:44:45.244Z,56.27
2018-05-13T07:45:45.266Z,55.7
2018-05-13T07:46:45.036Z,56.66
2018-05-13T07:47:45.314Z,56.66
2018-05-13T07:48:45.341Z,56.18
2018-05-13T07:49:45.114Z,56.3
2018-05-13T07:50:45.141Z,55.54
2018-05-13T07:51:45.416Z,54.57
2018-05-13T07:52:45.445Z,55.34
2018-05-13T07:53:45.470Z,56.27
2018-05-13T07:54:45.699Z,56.66
2018-05-13T07:55:45.273Z,56.37
2018-05-13T07:56:45.296Z,55.73
2018-05-13T07:57:45.573Z,55.34
2018-05-13T07:58:45.347Z,55.34
2018-05-13T07:59:45.625Z,55.05
2018-05-13T08:00:45.742Z,54.21
2018-05-13T08:01:45.674Z,53.63
2018-05-13T08:02:45.446Z,53.53
2018-05-13T08:03:45.727Z,53.63
2018-05-13T08:04:45.507Z,53.53
2018-05-13T08:05:45.780Z,53.53
2018-05-13T08:06:45.802Z,53.44
2018-05-13T08:07:45.829Z,53.44
2018-05-13T08:08:45.853Z,53.34
2018-05-13T08:09:45.881Z,53.63
2018-05-13T08:10:45.903Z,54.69
2018-05-13T08:11:45.927Z,54.28
2018-05-13T08:12:45.951Z,54.09
2018-05-13T08:13:45.977Z,53.53
2018-05-13T08:14:46.004Z,53.44
2018-05-13T08:15:46.027Z,53.44
2018-05-13T08:16:46.053Z,53.34
2018-05-13T08:17:46.078Z,52.86
2018-05-13T08:18:46.107Z,52.19
2018-05-13T08:19:46.134Z,51.73
2018-05-13T08:20:45.905Z,51.92
2018-05-13T08:21:45.929Z,52.01
2018-05-13T08:22:46.227Z,52.11
2018-05-13T08:23:46.240Z,51.82
2018-05-13T08:24:46.264Z,51.82
2018-05-13T08:25:46.288Z,51.44
2018-05-13T08:26:46.311Z,50.96
2018-05-13T08:27:46.335Z,50.96
2018-05-13T08:28:46.377Z,51.92
2018-05-13T08:29:46.403Z,50.86
2018-05-13T08:30:46.425Z,50.86
2018-05-13T08:31:46.447Z,50.21
2018-05-13T08:32:46.479Z,49.44
2018-05-13T08:33:46.245Z,48.69
2018-05-13T08:34:46.526Z,48.01
2018-05-13T08:35:46.555Z,47.55
2018-05-13T08:36:46.327Z,46.78
2018-05-13T08:37:46.666Z,46.97
2018-05-13T08:38:46.631Z,46.97
2018-05-13T08:39:46.653Z,47.16
2018-05-13T08:40:46.682Z,47.07
2018-05-13T08:41:46.704Z,46.88
2018-05-13T08:42:46.734Z,46.78
2018-05-13T08:43:46.766Z,47.16
2018-05-13T08:44:46.787Z,46.78
2018-05-13T08:45:46.561Z,46.78
2018-05-13T08:46:46.846Z,46.78
2018-05-13T08:47:46.866Z,47.16
2018-05-13T08:48:46.894Z,46.68
2018-05-13T08:49:46.922Z,46.49
2018-05-13T08:50:46.694Z,45.52
2018-05-13T08:51:46.982Z,45.25
2018-05-13T08:52:46.762Z,44.67
2018-05-13T08:53:46.772Z,44.7
2018-05-13T08:54:47.065Z,44.5
2018-05-13T08:55:47.079Z,44.6
2018-05-13T08:56:47.105Z,44.6
2018-05-13T08:57:46.883Z,44.4
2018-05-13T08:58:47.164Z,44.5
2018-05-13T08:59:47.297Z,43.37
2018-05-13T09:00:47.222Z,43.27
2018-05-13T09:01:47.243Z,43.63
2018-05-13T09:02:47.281Z,43.65
2018-05-13T09:03:47.286Z,43.27
2018-05-13T09:04:47.330Z,42.68
2018-05-13T09:05:47.087Z,42.22
2018-05-13T09:06:47.372Z,42.41
2018-05-13T09:07:47.395Z,42.13
2018-05-13T09:08:47.431Z,41.74
2018-05-13T09:09:47.205Z,41.74
2018-05-13T09:10:47.499Z,41.35
2018-05-13T09:11:47.511Z,40.99
2018-05-13T09:12:47.552Z,41
2018-05-13T09:13:47.565Z,40.42
2018-05-13T09:14:47.340Z,40.23
2018-05-13T09:15:47.624Z,40.33
2018-05-13T09:16:47.411Z,40.44
2018-05-13T09:17:47.677Z,40.71
2018-05-13T09:18:47.717Z,40.71
2018-05-13T09:19:47.731Z,40.71
2018-05-13T09:20:47.910Z,41.76
2018-05-13T09:21:47.788Z,42.03
2018-05-13T09:22:47.561Z,42.1
2018-05-13T09:23:47.590Z,41.91
2018-05-13T09:24:47.635Z,42
2018-05-13T09:25:47.897Z,42.2
2018-05-13T09:26:47.957Z,42
2018-05-13T09:27:47.961Z,41.74
2018-05-13T09:28:47.980Z,41.06
2018-05-13T09:29:48.001Z,40.89
2018-05-13T09:30:48.030Z,40.42
2018-05-13T09:31:47.805Z,40.42
2018-05-13T09:32:48.085Z,40.21
2018-05-13T09:33:48.113Z,39.74
2018-05-13T09:34:48.150Z,39.55
2018-05-13T09:35:47.921Z,39.36
2018-05-13T09:36:48.199Z,38.68
2018-05-13T09:37:47.969Z,37.84
2018-05-13T09:38:48.257Z,36.5
2018-05-13T09:39:48.286Z,36.32
2018-05-13T09:40:48.066Z,35.17
2018-05-13T09:41:48.334Z,34.52
2018-05-13T09:42:48.368Z,34.24
2018-05-13T09:43:48.395Z,33.09
2018-05-13T09:44:48.172Z,32.62
2018-05-13T09:45:48.521Z,33.39
2018-05-13T09:46:48.490Z,32.99
2018-05-13T09:47:48.515Z,32.03
2018-05-13T09:48:48.546Z,31.76
2018-05-13T09:49:48.324Z,31.46
2018-05-13T09:50:48.608Z,30.8
2018-05-13T09:51:48.635Z,30.71
2018-05-13T09:52:48.667Z,31.16
2018-05-13T09:53:48.698Z,31.54
2018-05-13T09:54:48.730Z,31.53
2018-05-13T09:55:48.766Z,32.79
2018-05-13T09:56:48.799Z,32.87
2018-05-13T09:57:48.824Z,32.1
2018-05-13T09:58:48.596Z,31.43
2018-05-13T09:59:48.631Z,31.25
2018-05-13T10:00:48.922Z,30.67
2018-05-13T10:01:48.947Z,29.43
2018-05-13T10:02:48.977Z,28.86
2018-05-13T10:03:49.013Z,28
2018-05-13T10:04:49.039Z,28.3
2018-05-13T10:05:49.134Z,29.07
2018-05-13T10:06:49.106Z,29.17
2018-05-13T10:07:49.136Z,29.07
2018-05-13T10:08:49.164Z,28.78
2018-05-13T10:09:49.200Z,28.3
2018-05-13T10:10:49.226Z,27.44
2018-05-13T10:11:49.005Z,27.08
2018-05-13T10:12:49.037Z,25.43
2018-05-13T10:13:49.323Z,24.85
2018-05-13T10:14:49.352Z,24.09
2018-05-13T10:15:49.388Z,24.48
2018-05-13T10:16:49.416Z,24.97
2018-05-13T10:17:49.451Z,24.87
2018-05-13T10:18:49.483Z,25.07
2018-05-13T10:19:49.523Z,25.74
2018-05-13T10:20:49.552Z,25.34
2018-05-13T10:21:49.323Z,25.15
2018-05-13T10:22:49.608Z,25.35
2018-05-13T10:23:49.640Z,26.12
2018-05-13T10:24:49.681Z,25.54
2018-05-13T10:25:49.708Z,25.73
2018-05-13T10:26:49.746Z,24.86
2018-05-13T10:27:49.777Z,25.06
2018-05-13T10:28:49.814Z,24.96
2018-05-13T10:29:49.838Z,24.29
2018-05-13T10:30:49.871Z,23.43
2018-05-13T10:31:49.902Z,22.56
2018-05-13T10:32:49.936Z,22.09
2018-05-13T10:33:49.972Z,21.61
2018-05-13T10:34:50.005Z,21.42
2018-05-13T10:35:50.044Z,20.46
2018-05-13T10:36:50.081Z,20.17
2018-05-13T10:37:50.110Z,20.17
2018-05-13T10:38:50.143Z,20.17
2018-05-13T10:39:50.178Z,20.17
2018-05-13T10:40:50.210Z,19.78
2018-05-13T10:41:49.998Z,19.79
2018-05-13T10:42:50.282Z,20.95
2018-05-13T10:43:50.318Z,21.02
2018-05-13T10:44:50.347Z,20.64
2018-05-13T10:45:50.386Z,21.62
2018-05-13T10:46:50.417Z,21.4
2018-05-13T10:47:50.455Z,21.89
2018-05-13T10:48:50.226Z,21.59
2018-05-13T10:49:50.515Z,21.5
2018-05-13T10:50:50.546Z,21.11
2018-05-13T10:51:50.584Z,20.34
2018-05-13T10:52:50.616Z,19.86
2018-05-13T10:53:50.651Z,19.57
2018-05-13T10:54:50.703Z,20.36
2018-05-13T10:55:50.473Z,20.24
2018-05-13T10:56:50.752Z,19.48
2018-05-13T10:57:51.023Z,18.9
2018-05-13T10:58:50.566Z,18.51
2018-05-13T10:59:50.854Z,17.73
2018-05-13T11:00:50.890Z,17.06
2018-05-13T11:01:50.668Z,17.45
2018-05-13T11:02:50.969Z,17.35
2018-05-13T11:03:50.994Z,16.96
2018-05-13T11:04:51.111Z,17.25
2018-05-13T11:05:50.806Z,17.16
2018-05-13T11:06:51.091Z,16.86
2018-05-13T11:07:51.120Z,16.77
2018-05-13T11:08:51.155Z,16.58
2018-05-13T11:09:51.195Z,15.7
2018-05-13T11:10:50.974Z,15.42
2018-05-13T11:11:51.259Z,15.81
2018-05-13T11:12:51.294Z,15.21
2018-05-13T11:13:51.329Z,14.83
2018-05-13T11:14:51.376Z,15.13
2018-05-13T11:15:51.412Z,14.64
2018-05-13T11:16:51.443Z,14.43
2018-05-13T11:17:51.480Z,14.73
2018-05-13T11:18:51.516Z,14.53
2018-05-13T11:19:51.555Z,14.34
2018-05-13T11:20:51.678Z,14.14
2018-05-13T11:21:51.621Z,14.04
2018-05-13T11:22:51.664Z,13.76
2018-05-13T11:23:51.438Z,13.37
2018-05-13T11:24:51.729Z,12.88
2018-05-13T11:25:51.763Z,12.3
2018-05-13T11:26:51.992Z,12.6
2018-05-13T11:27:51.832Z,12.41
2018-05-13T11:28:51.874Z,12.21
2018-05-13T11:29:51.905Z,12.12
2018-05-13T11:30:51.686Z,11.82
2018-05-13T11:31:51.978Z,11.73
2018-05-13T11:32:52.014Z,12.51
2018-05-13T11:33:52.171Z,12.3
2018-05-13T11:34:52.082Z,12.71
2018-05-13T11:35:52.125Z,13.4
2018-05-13T11:36:52.161Z,13.78
2018-05-13T11:37:52.195Z,14.76
2018-05-13T11:38:52.229Z,14.65
2018-05-13T11:39:52.393Z,13.85
2018-05-13T11:40:52.320Z,13.46
2018-05-13T11:41:52.089Z,12.49
2018-05-13T11:42:52.370Z,13.28
2018-05-13T11:43:52.416Z,13.38
2018-05-13T11:44:52.447Z,12.89
2018-05-13T11:45:52.485Z,13.58
2018-05-13T11:46:52.516Z,14.15
2018-05-13T11:47:52.553Z,14.75
2018-05-13T11:48:52.595Z,15.14
2018-05-13T11:49:52.624Z,15.52
2018-05-13T11:50:52.407Z,15.41
2018-05-13T11:51:52.693Z,15.8
2018-05-13T11:52:52.734Z,15.5
2018-05-13T11:53:52.765Z,15.2
2018-05-13T11:54:52.809Z,14.81
2018-05-13T11:55:52.836Z,14.73
2018-05-13T11:56:52.873Z,14.14
2018-05-13T11:57:52.907Z,13.26
2018-05-13T11:58:52.944Z,13.28
2018-05-13T11:59:52.973Z,12.39
2018-05-13T12:00:53.010Z,11.71
2018-05-13T12:01:52.793Z,11.41
2018-05-13T12:02:53.083Z,11.52
2018-05-13T12:03:53.120Z,10.93
2018-05-13T12:04:53.155Z,10.34
2018-05-13T12:05:53.192Z,9.75
2018-05-13T12:06:53.228Z,9.16
2018-05-13T12:07:53.267Z,9.46
2018-05-13T12:08:53.050Z,8.87
2018-05-13T12:09:53.343Z,8.67
2018-05-13T12:10:53.382Z,9.18
2018-05-13T12:11:53.417Z,9.47
2018-05-13T12:12:53.451Z,9.47
2018-05-13T12:13:53.234Z,9.47
2018-05-13T12:14:53.524Z,9.08
2018-05-13T12:15:53.308Z,8.78
2018-05-13T12:16:53.605Z,8.29
2018-05-13T12:17:53.641Z,8.29
2018-05-13T12:18:53.675Z,8.2
2018-05-13T12:19:53.711Z,8.59
2018-05-13T12:20:53.762Z,8.69
2018-05-13T12:21:53.787Z,8.29
2018-05-13T12:22:53.826Z,8.8
2018-05-13T12:23:53.864Z,10.28
2018-05-13T12:24:53.900Z,10.56
2018-05-13T12:25:53.938Z,11.33
2018-05-13T12:26:53.974Z,12.61
2018-05-13T12:27:54.014Z,13.2
2018-05-13T12:28:54.164Z,13.77
2018-05-13T12:29:54.085Z,14.34
2018-05-13T12:30:53.870Z,14.83
2018-05-13T12:31:54.162Z,15.51
2018-05-13T12:32:54.194Z,15.51
2018-05-13T12:33:54.232Z,14.91
2018-05-13T12:34:54.014Z,15.11
2018-05-13T12:35:54.049Z,15.7
2018-05-13T12:36:54.335Z,15.69
2018-05-13T12:37:54.391Z,16.08
2018-05-13T12:38:54.410Z,15.59
2018-05-13T12:39:54.442Z,16.17
2018-05-13T12:40:54.480Z,16.47
2018-05-13T12:41:54.512Z,16.47
2018-05-13T12:42:54.552Z,16.36
2018-05-13T12:43:54.590Z,15.86
2018-05-13T12:44:54.616Z,14.89
2018-05-13T12:45:54.648Z,14.22
2018-05-13T12:46:54.682Z,13.15
2018-05-13T12:47:54.718Z,12.57
2018-05-13T12:48:54.792Z,11.99
2018-05-13T12:49:54.814Z,11.31
2018-05-13T12:50:54.826Z,10.93
2018-05-13T12:51:54.860Z,11.04
2018-05-13T12:52:54.890Z,11.15
2018-05-13T12:53:54.925Z,10.85
2018-05-13T12:54:54.707Z,10.25
2018-05-13T12:55:54.743Z,10.66
2018-05-13T12:56:55.039Z,10.95